sensor_id;sensor_type;location;lat;lon;timestamp;temperature;humidity
53294;DHT22;39181;53.440;5.644;2023-03-23T00:01:05;9.70;99.90
53294;DHT22;39181;53.440;5.644;2023-03-23T00:03:32;9.70;99.90
53294;DHT22;39181;53.440;5.644;2023-03-23T00:05:58;9.80;99.90
53294;DHT22;39181;53.440;5.644;2023-03-23T00:08:30;9.80;99.90
53294;DHT22;39181;53.440;5.644;2023-03-23T00:10:56;9.70;99.90
53294;DHT22;39181;53.440;5.644;2023-03-23T00:13:25;9.80;99.90
53294;DHT22;39181;53.440;5.644;2023-03-23T00:15:51;9.80;99.90
53294;DHT22;39181;53.440;5.644;2023-03-23T00:18:20;9.80;99.90
53294;DHT22;39181;53.440;5.644;2023-03-23T00:20:54;9.80;99.90
53294;DHT22;39181;53.440;5.644;2023-03-23T00:23:23;9.80;99.90
53294;DHT22;39181;53.440;5.644;2023-03-23T00:25:54;9.80;99.90
53294;DHT22;39181;53.440;5.644;2023-03-23T00:28:24;9.80;99.90
53294;DHT22;39181;53.440;5.644;2023-03-23T00:30:55;9.90;99.90
53294;DHT22;39181;53.440;5.644;2023-03-23T00:33:26;9.80;99.90
53294;DHT22;39181;53.440;5.644;2023-03-23T00:35:53;9.90;99.90
53294;DHT22;39181;53.440;5.644;2023-03-23T00:38:23;9.90;99.90
53294;DHT22;39181;53.440;5.644;2023-03-23T00:40:49;9.80;99.90
53294;DHT22;39181;53.440;5.644;2023-03-23T00:43:16;9.80;99.90
53294;DHT22;39181;53.440;5.644;2023-03-23T00:45:42;9.80;99.90
53294;DHT22;39181;53.440;5.644;2023-03-23T00:48:10;9.80;99.90
53294;DHT22;39181;53.440;5.644;2023-03-23T00:50:38;9.80;99.90
53294;DHT22;39181;53.440;5.644;2023-03-23T00:53:04;9.80;99.90
53294;DHT22;39181;53.440;5.644;2023-03-23T00:55:29;9.80;99.90
53294;DHT22;39181;53.440;5.644;2023-03-23T00:57:56;9.80;99.90
53294;DHT22;39181;53.440;5.644;2023-03-23T01:00:22;9.80;99.90
53294;DHT22;39181;53.440;5.644;2023-03-23T01:02:48;9.80;99.90
53294;DHT22;39181;53.440;5.644;2023-03-23T01:05:16;9.90;99.90
53294;DHT22;39181;53.440;5.644;2023-03-23T01:07:42;9.80;99.90
53294;DHT22;39181;53.440;5.644;2023-03-23T01:10:10;9.80;99.90
53294;DHT22;39181;53.440;5.644;2023-03-23T01:12:38;9.90;99.90
53294;DHT22;39181;53.440;5.644;2023-03-23T01:15:05;9.80;99.90
53294;DHT22;39181;53.440;5.644;2023-03-23T01:17:31;9.90;99.90
53294;DHT22;39181;53.440;5.644;2023-03-23T01:19:57;9.80;99.90
53294;DHT22;39181;53.440;5.644;2023-03-23T01:22:22;9.90;99.90
53294;DHT22;39181;53.440;5.644;2023-03-23T01:24:48;9.90;99.90
53294;DHT22;39181;53.440;5.644;2023-03-23T01:27:13;9.90;99.90
53294;DHT22;39181;53.440;5.644;2023-03-23T01:29:39;9.90;99.90
53294;DHT22;39181;53.440;5.644;2023-03-23T01:32:05;9.90;99.90
53294;DHT22;39181;53.440;5.644;2023-03-23T01:34:31;9.90;99.90
53294;DHT22;39181;53.440;5.644;2023-03-23T01:36:56;10.00;99.90
53294;DHT22;39181;53.440;5.644;2023-03-23T01:39:23;10.00;99.90
53294;DHT22;39181;53.440;5.644;2023-03-23T01:41:49;10.00;99.90
53294;DHT22;39181;53.440;5.644;2023-03-23T01:46:44;10.10;99.90
53294;DHT22;39181;53.440;5.644;2023-03-23T01:49:13;10.10;99.90
53294;DHT22;39181;53.440;5.644;2023-03-23T01:51:47;10.10;99.90
53294;DHT22;39181;53.440;5.644;2023-03-23T01:54:14;10.10;99.90
53294;DHT22;39181;53.440;5.644;2023-03-23T01:56:48;10.00;99.90
53294;DHT22;39181;53.440;5.644;2023-03-23T01:59:15;10.00;99.90
53294;DHT22;39181;53.440;5.644;2023-03-23T02:01:41;10.10;99.90
53294;DHT22;39181;53.440;5.644;2023-03-23T02:04:11;10.10;99.90
53294;DHT22;39181;53.440;5.644;2023-03-23T02:06:38;10.10;99.90
53294;DHT22;39181;53.440;5.644;2023-03-23T02:09:04;10.10;99.90
53294;DHT22;39181;53.440;5.644;2023-03-23T02:11:32;10.20;99.90
53294;DHT22;39181;53.440;5.644;2023-03-23T02:13:58;10.10;99.90
53294;DHT22;39181;53.440;5.644;2023-03-23T02:19:52;10.20;99.90
53294;DHT22;39181;53.440;5.644;2023-03-23T02:30:48;10.30;99.90
53294;DHT22;39181;53.440;5.644;2023-03-23T02:33:38;10.20;99.90
53294;DHT22;39181;53.440;5.644;2023-03-23T02:41:19;10.20;99.90
53294;DHT22;39181;53.440;5.644;2023-03-23T02:43:46;10.20;99.90
53294;DHT22;39181;53.440;5.644;2023-03-23T02:46:14;10.20;99.90
53294;DHT22;39181;53.440;5.644;2023-03-23T02:48:41;10.20;99.90
53294;DHT22;39181;53.440;5.644;2023-03-23T02:51:08;10.20;99.90
53294;DHT22;39181;53.440;5.644;2023-03-23T02:53:38;10.20;99.90
53294;DHT22;39181;53.440;5.644;2023-03-23T02:56:06;10.30;99.90
53294;DHT22;39181;53.440;5.644;2023-03-23T02:58:33;10.30;99.90
53294;DHT22;39181;53.440;5.644;2023-03-23T03:00:59;10.30;99.90
53294;DHT22;39181;53.440;5.644;2023-03-23T03:03:28;10.40;99.90
53294;DHT22;39181;53.440;5.644;2023-03-23T03:11:14;10.50;99.90
53294;DHT22;39181;53.440;5.644;2023-03-23T03:13:45;10.50;99.90
53294;DHT22;39181;53.440;5.644;2023-03-23T03:19:11;10.50;99.90
53294;DHT22;39181;53.440;5.644;2023-03-23T03:21:42;10.50;99.90
53294;DHT22;39181;53.440;5.644;2023-03-23T03:24:08;10.50;99.90
53294;DHT22;39181;53.440;5.644;2023-03-23T03:26:37;10.50;99.90
53294;DHT22;39181;53.440;5.644;2023-03-23T03:29:05;10.60;99.90
53294;DHT22;39181;53.440;5.644;2023-03-23T03:31:38;10.50;99.90
53294;DHT22;39181;53.440;5.644;2023-03-23T03:34:05;10.50;99.90
53294;DHT22;39181;53.440;5.644;2023-03-23T03:36:33;10.50;99.90
53294;DHT22;39181;53.440;5.644;2023-03-23T03:39:08;10.40;99.90
53294;DHT22;39181;53.440;5.644;2023-03-23T03:41:36;10.40;99.90
53294;DHT22;39181;53.440;5.644;2023-03-23T03:44:03;10.40;99.90
53294;DHT22;39181;53.440;5.644;2023-03-23T03:46:29;10.40;99.90
53294;DHT22;39181;53.440;5.644;2023-03-23T03:49:00;10.40;99.90
53294;DHT22;39181;53.440;5.644;2023-03-23T03:51:27;10.40;99.90
53294;DHT22;39181;53.440;5.644;2023-03-23T03:53:53;10.30;99.90
53294;DHT22;39181;53.440;5.644;2023-03-23T03:56:19;10.30;99.90
53294;DHT22;39181;53.440;5.644;2023-03-23T03:58:47;10.30;99.90
53294;DHT22;39181;53.440;5.644;2023-03-23T04:01:14;10.30;99.90
53294;DHT22;39181;53.440;5.644;2023-03-23T04:03:41;10.30;99.90
53294;DHT22;39181;53.440;5.644;2023-03-23T04:06:07;10.30;99.90
53294;DHT22;39181;53.440;5.644;2023-03-23T04:08:34;10.30;99.90
53294;DHT22;39181;53.440;5.644;2023-03-23T04:10:59;10.40;99.90
53294;DHT22;39181;53.440;5.644;2023-03-23T04:13:25;10.40;99.90
53294;DHT22;39181;53.440;5.644;2023-03-23T04:15:51;10.40;99.90
53294;DHT22;39181;53.440;5.644;2023-03-23T04:18:17;10.40;99.90
53294;DHT22;39181;53.440;5.644;2023-03-23T04:20:44;10.40;99.90
53294;DHT22;39181;53.440;5.644;2023-03-23T04:23:13;10.40;99.90
53294;DHT22;39181;53.440;5.644;2023-03-23T04:25:38;10.40;99.90
53294;DHT22;39181;53.440;5.644;2023-03-23T04:28:06;10.40;99.90
53294;DHT22;39181;53.440;5.644;2023-03-23T04:30:32;10.40;99.90
53294;DHT22;39181;53.440;5.644;2023-03-23T04:32:58;10.40;99.90
53294;DHT22;39181;53.440;5.644;2023-03-23T04:35:27;10.40;99.90
53294;DHT22;39181;53.440;5.644;2023-03-23T04:37:53;10.30;99.90
53294;DHT22;39181;53.440;5.644;2023-03-23T04:40:20;10.30;99.90
53294;DHT22;39181;53.440;5.644;2023-03-23T04:42:46;10.30;99.90
53294;DHT22;39181;53.440;5.644;2023-03-23T04:45:19;10.20;99.90
53294;DHT22;39181;53.440;5.644;2023-03-23T04:47:50;10.20;99.90
53294;DHT22;39181;53.440;5.644;2023-03-23T04:50:23;10.10;99.90
53294;DHT22;39181;53.440;5.644;2023-03-23T04:52:50;10.00;99.90
53294;DHT22;39181;53.440;5.644;2023-03-23T04:55:17;10.00;99.90
53294;DHT22;39181;53.440;5.644;2023-03-23T04:57:43;9.90;99.90
53294;DHT22;39181;53.440;5.644;2023-03-23T05:00:10;9.80;99.90
53294;DHT22;39181;53.440;5.644;2023-03-23T05:02:41;9.80;99.90
53294;DHT22;39181;53.440;5.644;2023-03-23T05:05:08;9.80;99.90
53294;DHT22;39181;53.440;5.644;2023-03-23T05:07:38;9.80;99.90
53294;DHT22;39181;53.440;5.644;2023-03-23T05:10:05;9.80;99.90
53294;DHT22;39181;53.440;5.644;2023-03-23T05:12:31;9.80;99.90
53294;DHT22;39181;53.440;5.644;2023-03-23T05:14:57;9.80;99.90
53294;DHT22;39181;53.440;5.644;2023-03-23T05:17:22;9.80;99.90
53294;DHT22;39181;53.440;5.644;2023-03-23T05:19:52;9.70;99.90
53294;DHT22;39181;53.440;5.644;2023-03-23T05:22:19;9.60;99.90
53294;DHT22;39181;53.440;5.644;2023-03-23T05:24:47;9.60;99.90
53294;DHT22;39181;53.440;5.644;2023-03-23T05:27:13;9.50;99.90
53294;DHT22;39181;53.440;5.644;2023-03-23T05:29:40;9.50;99.90
53294;DHT22;39181;53.440;5.644;2023-03-23T05:32:07;9.50;99.90
53294;DHT22;39181;53.440;5.644;2023-03-23T05:34:33;9.50;99.90
53294;DHT22;39181;53.440;5.644;2023-03-23T05:37:00;9.50;99.90
53294;DHT22;39181;53.440;5.644;2023-03-23T05:39:27;9.50;99.90
53294;DHT22;39181;53.440;5.644;2023-03-23T05:41:53;9.50;99.90
53294;DHT22;39181;53.440;5.644;2023-03-23T05:44:19;9.50;99.90
53294;DHT22;39181;53.440;5.644;2023-03-23T05:46:45;9.40;99.90
53294;DHT22;39181;53.440;5.644;2023-03-23T05:49:11;9.40;99.90
53294;DHT22;39181;53.440;5.644;2023-03-23T05:51:37;9.40;99.90
53294;DHT22;39181;53.440;5.644;2023-03-23T05:54:03;9.40;99.90
53294;DHT22;39181;53.440;5.644;2023-03-23T05:56:29;9.40;99.90
53294;DHT22;39181;53.440;5.644;2023-03-23T05:58:56;9.30;99.90
53294;DHT22;39181;53.440;5.644;2023-03-23T06:01:21;9.20;99.90
53294;DHT22;39181;53.440;5.644;2023-03-23T06:03:48;9.20;99.90
53294;DHT22;39181;53.440;5.644;2023-03-23T06:06:16;9.10;99.90
53294;DHT22;39181;53.440;5.644;2023-03-23T06:08:43;9.10;99.90
53294;DHT22;39181;53.440;5.644;2023-03-23T06:11:10;9.10;99.90
53294;DHT22;39181;53.440;5.644;2023-03-23T06:13:35;9.00;99.90
53294;DHT22;39181;53.440;5.644;2023-03-23T06:16:02;9.00;99.90
53294;DHT22;39181;53.440;5.644;2023-03-23T06:18:29;8.90;99.90
53294;DHT22;39181;53.440;5.644;2023-03-23T06:20:59;9.00;99.90
53294;DHT22;39181;53.440;5.644;2023-03-23T06:23:25;8.90;99.90
53294;DHT22;39181;53.440;5.644;2023-03-23T06:25:55;8.80;99.90
53294;DHT22;39181;53.440;5.644;2023-03-23T06:28:22;8.90;99.90
53294;DHT22;39181;53.440;5.644;2023-03-23T06:30:48;8.90;99.90
53294;DHT22;39181;53.440;5.644;2023-03-23T06:33:15;8.90;99.90
53294;DHT22;39181;53.440;5.644;2023-03-23T06:35:40;8.90;99.90
53294;DHT22;39181;53.440;5.644;2023-03-23T06:38:06;8.90;99.90
53294;DHT22;39181;53.440;5.644;2023-03-23T06:40:31;8.90;99.90
53294;DHT22;39181;53.440;5.644;2023-03-23T06:42:57;8.90;99.90
53294;DHT22;39181;53.440;5.644;2023-03-23T06:45:24;8.90;99.90
53294;DHT22;39181;53.440;5.644;2023-03-23T06:47:50;8.90;99.90
53294;DHT22;39181;53.440;5.644;2023-03-23T06:50:16;9.00;99.90
53294;DHT22;39181;53.440;5.644;2023-03-23T06:52:49;9.00;99.90
53294;DHT22;39181;53.440;5.644;2023-03-23T06:55:16;9.00;99.90
53294;DHT22;39181;53.440;5.644;2023-03-23T06:57:42;9.00;99.90
53294;DHT22;39181;53.440;5.644;2023-03-23T07:00:09;9.00;99.90
53294;DHT22;39181;53.440;5.644;2023-03-23T07:02:38;9.10;99.90
53294;DHT22;39181;53.440;5.644;2023-03-23T07:05:04;9.10;99.90
53294;DHT22;39181;53.440;5.644;2023-03-23T07:07:30;9.10;99.90
53294;DHT22;39181;53.440;5.644;2023-03-23T07:09:55;9.20;99.90
53294;DHT22;39181;53.440;5.644;2023-03-23T07:12:21;9.20;99.90
53294;DHT22;39181;53.440;5.644;2023-03-23T07:14:48;9.20;99.90
53294;DHT22;39181;53.440;5.644;2023-03-23T07:17:13;9.20;99.90
53294;DHT22;39181;53.440;5.644;2023-03-23T07:19:39;9.30;99.90
53294;DHT22;39181;53.440;5.644;2023-03-23T07:22:06;9.30;99.90
53294;DHT22;39181;53.440;5.644;2023-03-23T07:24:32;9.30;99.90
53294;DHT22;39181;53.440;5.644;2023-03-23T07:26:58;9.30;99.90
53294;DHT22;39181;53.440;5.644;2023-03-23T07:29:24;9.40;99.90
53294;DHT22;39181;53.440;5.644;2023-03-23T07:31:50;9.40;99.90
53294;DHT22;39181;53.440;5.644;2023-03-23T07:34:17;9.40;99.90
53294;DHT22;39181;53.440;5.644;2023-03-23T07:36:42;9.40;99.90
53294;DHT22;39181;53.440;5.644;2023-03-23T07:39:08;9.50;99.90
53294;DHT22;39181;53.440;5.644;2023-03-23T07:41:34;9.50;99.90
53294;DHT22;39181;53.440;5.644;2023-03-23T07:43:59;9.50;99.90
53294;DHT22;39181;53.440;5.644;2023-03-23T07:46:25;9.60;99.90
53294;DHT22;39181;53.440;5.644;2023-03-23T07:48:51;9.60;99.90
53294;DHT22;39181;53.440;5.644;2023-03-23T07:51:17;9.60;99.90
53294;DHT22;39181;53.440;5.644;2023-03-23T07:53:43;9.60;99.90
53294;DHT22;39181;53.440;5.644;2023-03-23T07:56:12;9.60;99.90
53294;DHT22;39181;53.440;5.644;2023-03-23T07:58:40;9.70;99.90
53294;DHT22;39181;53.440;5.644;2023-03-23T08:01:06;9.70;99.90
53294;DHT22;39181;53.440;5.644;2023-03-23T08:03:32;9.70;99.90
53294;DHT22;39181;53.440;5.644;2023-03-23T08:05:59;9.80;99.90
53294;DHT22;39181;53.440;5.644;2023-03-23T08:08:25;9.90;99.90
53294;DHT22;39181;53.440;5.644;2023-03-23T08:10:50;9.80;99.90
53294;DHT22;39181;53.440;5.644;2023-03-23T08:13:16;9.90;99.90
53294;DHT22;39181;53.440;5.644;2023-03-23T08:15:42;9.90;99.90
53294;DHT22;39181;53.440;5.644;2023-03-23T08:18:08;10.00;99.90
53294;DHT22;39181;53.440;5.644;2023-03-23T08:20:34;10.00;99.90
53294;DHT22;39181;53.440;5.644;2023-03-23T08:23:01;10.10;99.90
53294;DHT22;39181;53.440;5.644;2023-03-23T08:25:28;10.10;99.90
53294;DHT22;39181;53.440;5.644;2023-03-23T08:27:57;10.10;99.90
53294;DHT22;39181;53.440;5.644;2023-03-23T08:30:22;10.20;99.90
53294;DHT22;39181;53.440;5.644;2023-03-23T08:32:50;10.20;99.90
53294;DHT22;39181;53.440;5.644;2023-03-23T08:35:17;10.30;99.90
53294;DHT22;39181;53.440;5.644;2023-03-23T08:37:43;10.30;99.90
53294;DHT22;39181;53.440;5.644;2023-03-23T08:40:12;10.40;99.90
53294;DHT22;39181;53.440;5.644;2023-03-23T08:42:42;10.40;99.90
53294;DHT22;39181;53.440;5.644;2023-03-23T08:45:11;10.50;99.90
53294;DHT22;39181;53.440;5.644;2023-03-23T08:47:38;10.60;99.90
53294;DHT22;39181;53.440;5.644;2023-03-23T08:50:05;10.70;99.90
53294;DHT22;39181;53.440;5.644;2023-03-23T08:52:31;10.70;99.90
53294;DHT22;39181;53.440;5.644;2023-03-23T08:54:57;10.90;99.90
53294;DHT22;39181;53.440;5.644;2023-03-23T08:57:24;11.00;99.90
53294;DHT22;39181;53.440;5.644;2023-03-23T08:59:50;11.10;99.90
53294;DHT22;39181;53.440;5.644;2023-03-23T09:02:19;11.10;99.90
53294;DHT22;39181;53.440;5.644;2023-03-23T09:04:45;11.20;99.90
53294;DHT22;39181;53.440;5.644;2023-03-23T09:07:11;11.20;99.90
53294;DHT22;39181;53.440;5.644;2023-03-23T09:09:38;11.30;99.90
53294;DHT22;39181;53.440;5.644;2023-03-23T09:12:08;11.40;99.90
53294;DHT22;39181;53.440;5.644;2023-03-23T09:14:35;11.50;99.90
53294;DHT22;39181;53.440;5.644;2023-03-23T09:17:02;11.50;99.90
53294;DHT22;39181;53.440;5.644;2023-03-23T09:19:28;11.60;99.90
53294;DHT22;39181;53.440;5.644;2023-03-23T09:21:54;11.60;99.90
53294;DHT22;39181;53.440;5.644;2023-03-23T09:24:20;11.70;99.90
53294;DHT22;39181;53.440;5.644;2023-03-23T09:26:46;11.80;99.90
53294;DHT22;39181;53.440;5.644;2023-03-23T09:29:12;11.80;99.90
53294;DHT22;39181;53.440;5.644;2023-03-23T09:31:38;11.90;99.90
53294;DHT22;39181;53.440;5.644;2023-03-23T09:34:05;12.00;99.90
53294;DHT22;39181;53.440;5.644;2023-03-23T09:36:31;12.00;99.90
53294;DHT22;39181;53.440;5.644;2023-03-23T09:38:58;12.10;99.90
53294;DHT22;39181;53.440;5.644;2023-03-23T09:41:59;12.20;99.90
53294;DHT22;39181;53.440;5.644;2023-03-23T09:44:50;12.30;99.90
53294;DHT22;39181;53.440;5.644;2023-03-23T09:47:45;12.30;99.90
53294;DHT22;39181;53.440;5.644;2023-03-23T09:55:17;12.60;99.90
53294;DHT22;39181;53.440;5.644;2023-03-23T09:57:58;12.60;99.90
53294;DHT22;39181;53.440;5.644;2023-03-23T10:03:07;12.60;99.90
53294;DHT22;39181;53.440;5.644;2023-03-23T10:05:40;12.70;99.90
53294;DHT22;39181;53.440;5.644;2023-03-23T10:08:14;12.70;99.90
53294;DHT22;39181;53.440;5.644;2023-03-23T10:11:03;12.70;99.90
53294;DHT22;39181;53.440;5.644;2023-03-23T10:14:00;12.80;99.90
53294;DHT22;39181;53.440;5.644;2023-03-23T10:16:35;12.80;99.90
53294;DHT22;39181;53.440;5.644;2023-03-23T10:21:35;12.90;99.90
53294;DHT22;39181;53.440;5.644;2023-03-23T10:24:04;12.90;99.90
53294;DHT22;39181;53.440;5.644;2023-03-23T10:26:44;13.00;99.90
53294;DHT22;39181;53.440;5.644;2023-03-23T10:34:51;13.10;99.90
53294;DHT22;39181;53.440;5.644;2023-03-23T10:37:23;13.20;99.90
53294;DHT22;39181;53.440;5.644;2023-03-23T10:39:53;13.20;99.90
53294;DHT22;39181;53.440;5.644;2023-03-23T10:42:30;13.20;99.90
53294;DHT22;39181;53.440;5.644;2023-03-23T10:45:00;13.20;99.90
53294;DHT22;39181;53.440;5.644;2023-03-23T10:47:31;13.30;99.90
53294;DHT22;39181;53.440;5.644;2023-03-23T10:49:59;13.30;99.90
53294;DHT22;39181;53.440;5.644;2023-03-23T10:55:12;13.70;99.90
53294;DHT22;39181;53.440;5.644;2023-03-23T10:57:41;13.50;99.90
53294;DHT22;39181;53.440;5.644;2023-03-23T11:00:18;13.50;99.90
53294;DHT22;39181;53.440;5.644;2023-03-23T11:02:47;13.50;99.90
53294;DHT22;39181;53.440;5.644;2023-03-23T11:05:19;13.60;99.90
53294;DHT22;39181;53.440;5.644;2023-03-23T11:07:55;13.70;99.90
53294;DHT22;39181;53.440;5.644;2023-03-23T11:10:25;13.70;99.90
53294;DHT22;39181;53.440;5.644;2023-03-23T11:12:52;13.80;99.90
53294;DHT22;39181;53.440;5.644;2023-03-23T11:15:33;13.80;99.90
53294;DHT22;39181;53.440;5.644;2023-03-23T11:18:10;13.80;99.90
53294;DHT22;39181;53.440;5.644;2023-03-23T11:20:44;13.80;99.90
53294;DHT22;39181;53.440;5.644;2023-03-23T11:23:20;13.90;99.90
53294;DHT22;39181;53.440;5.644;2023-03-23T11:28:29;14.00;99.90
53294;DHT22;39181;53.440;5.644;2023-03-23T11:30:58;14.10;99.90
53294;DHT22;39181;53.440;5.644;2023-03-23T11:33:25;14.10;99.90
53294;DHT22;39181;53.440;5.644;2023-03-23T11:35:54;14.10;99.90
53294;DHT22;39181;53.440;5.644;2023-03-23T11:38:21;14.10;99.90
53294;DHT22;39181;53.440;5.644;2023-03-23T11:40:51;14.10;99.90
53294;DHT22;39181;53.440;5.644;2023-03-23T11:43:23;14.10;99.90
53294;DHT22;39181;53.440;5.644;2023-03-23T11:48:51;14.10;99.90
53294;DHT22;39181;53.440;5.644;2023-03-23T11:54:34;14.20;99.90
53294;DHT22;39181;53.440;5.644;2023-03-23T11:57:07;14.20;99.90
53294;DHT22;39181;53.440;5.644;2023-03-23T11:59:36;14.20;99.90
53294;DHT22;39181;53.440;5.644;2023-03-23T12:02:32;14.30;99.90
53294;DHT22;39181;53.440;5.644;2023-03-23T12:05:11;14.30;99.90
53294;DHT22;39181;53.440;5.644;2023-03-23T12:07:54;14.30;99.90
53294;DHT22;39181;53.440;5.644;2023-03-23T12:13:06;14.40;99.90
53294;DHT22;39181;53.440;5.644;2023-03-23T12:15:42;14.40;99.90
53294;DHT22;39181;53.440;5.644;2023-03-23T12:18:32;14.30;99.90
53294;DHT22;39181;53.440;5.644;2023-03-23T12:21:04;14.40;99.90
53294;DHT22;39181;53.440;5.644;2023-03-23T12:24:02;14.30;99.90
53294;DHT22;39181;53.440;5.644;2023-03-23T12:26:36;14.30;99.90
53294;DHT22;39181;53.440;5.644;2023-03-23T12:34:41;14.30;99.90
53294;DHT22;39181;53.440;5.644;2023-03-23T12:37:34;14.20;99.90
53294;DHT22;39181;53.440;5.644;2023-03-23T12:48:32;14.20;99.90
53294;DHT22;39181;53.440;5.644;2023-03-23T12:51:13;14.20;99.90
53294;DHT22;39181;53.440;5.644;2023-03-23T12:56:43;14.20;99.90
53294;DHT22;39181;53.440;5.644;2023-03-23T13:01:47;14.10;99.90
53294;DHT22;39181;53.440;5.644;2023-03-23T13:04:19;14.10;99.90
53294;DHT22;39181;53.440;5.644;2023-03-23T13:06:47;14.20;99.90
53294;DHT22;39181;53.440;5.644;2023-03-23T13:11:53;13.90;99.90
53294;DHT22;39181;53.440;5.644;2023-03-23T13:14:41;14.00;99.90
53294;DHT22;39181;53.440;5.644;2023-03-23T13:20:39;14.10;99.90
53294;DHT22;39181;53.440;5.644;2023-03-23T13:23:18;14.00;99.90
53294;DHT22;39181;53.440;5.644;2023-03-23T13:28:22;13.90;99.90
53294;DHT22;39181;53.440;5.644;2023-03-23T13:30:56;13.90;99.90
53294;DHT22;39181;53.440;5.644;2023-03-23T13:33:23;13.90;99.90
53294;DHT22;39181;53.440;5.644;2023-03-23T13:35:49;13.80;99.90
53294;DHT22;39181;53.440;5.644;2023-03-23T13:38:24;13.80;99.90
53294;DHT22;39181;53.440;5.644;2023-03-23T13:40:51;13.80;99.90
53294;DHT22;39181;53.440;5.644;2023-03-23T13:43:29;13.70;99.90
53294;DHT22;39181;53.440;5.644;2023-03-23T13:46:05;13.70;99.90
53294;DHT22;39181;53.440;5.644;2023-03-23T13:48:49;13.70;99.90
53294;DHT22;39181;53.440;5.644;2023-03-23T13:51:36;13.60;99.90
53294;DHT22;39181;53.440;5.644;2023-03-23T13:56:47;13.60;99.90
53294;DHT22;39181;53.440;5.644;2023-03-23T13:59:49;13.60;99.90
53294;DHT22;39181;53.440;5.644;2023-03-23T14:02:31;13.50;99.90
53294;DHT22;39181;53.440;5.644;2023-03-23T14:05:11;13.40;99.90
53294;DHT22;39181;53.440;5.644;2023-03-23T14:10:19;13.40;99.90
53294;DHT22;39181;53.440;5.644;2023-03-23T14:12:45;13.30;99.90
53294;DHT22;39181;53.440;5.644;2023-03-23T14:15:13;13.30;99.90
53294;DHT22;39181;53.440;5.644;2023-03-23T14:17:44;13.30;99.90
53294;DHT22;39181;53.440;5.644;2023-03-23T14:20:25;13.30;99.90
53294;DHT22;39181;53.440;5.644;2023-03-23T14:22:55;13.20;99.90
53294;DHT22;39181;53.440;5.644;2023-03-23T14:25:22;13.20;99.90
53294;DHT22;39181;53.440;5.644;2023-03-23T14:27:51;13.10;99.90
53294;DHT22;39181;53.440;5.644;2023-03-23T14:30:23;13.10;99.90
53294;DHT22;39181;53.440;5.644;2023-03-23T14:32:51;13.10;99.90
53294;DHT22;39181;53.440;5.644;2023-03-23T14:35:28;13.00;99.90
53294;DHT22;39181;53.440;5.644;2023-03-23T14:37:55;13.00;99.90
53294;DHT22;39181;53.440;5.644;2023-03-23T14:40:21;13.00;99.90
53294;DHT22;39181;53.440;5.644;2023-03-23T14:42:47;12.90;99.90
53294;DHT22;39181;53.440;5.644;2023-03-23T14:45:17;12.90;99.90
53294;DHT22;39181;53.440;5.644;2023-03-23T14:47:57;12.90;99.90
53294;DHT22;39181;53.440;5.644;2023-03-23T14:51:14;12.90;99.90
53294;DHT22;39181;53.440;5.644;2023-03-23T14:55:51;12.90;99.90
53294;DHT22;39181;53.440;5.644;2023-03-23T14:58:19;12.80;99.90
53294;DHT22;39181;53.440;5.644;2023-03-23T15:00:54;12.80;99.90
53294;DHT22;39181;53.440;5.644;2023-03-23T15:03:21;12.80;99.90
53294;DHT22;39181;53.440;5.644;2023-03-23T15:05:51;12.80;99.90
53294;DHT22;39181;53.440;5.644;2023-03-23T15:08:30;12.80;99.90
53294;DHT22;39181;53.440;5.644;2023-03-23T15:11:04;12.80;99.90
53294;DHT22;39181;53.440;5.644;2023-03-23T15:13:31;12.70;99.90
53294;DHT22;39181;53.440;5.644;2023-03-23T15:16:06;12.70;99.90
53294;DHT22;39181;53.440;5.644;2023-03-23T15:18:36;12.70;99.90
53294;DHT22;39181;53.440;5.644;2023-03-23T15:21:11;12.70;99.90
53294;DHT22;39181;53.440;5.644;2023-03-23T15:23:42;12.60;99.90
53294;DHT22;39181;53.440;5.644;2023-03-23T15:28:49;12.70;99.90
53294;DHT22;39181;53.440;5.644;2023-03-23T15:31:14;12.70;99.90
53294;DHT22;39181;53.440;5.644;2023-03-23T15:33:40;12.60;99.90
53294;DHT22;39181;53.440;5.644;2023-03-23T15:36:15;12.70;99.90
53294;DHT22;39181;53.440;5.644;2023-03-23T15:38:42;12.70;99.90
53294;DHT22;39181;53.440;5.644;2023-03-23T15:41:24;12.60;99.90
53294;DHT22;39181;53.440;5.644;2023-03-23T15:44:11;12.70;99.90
53294;DHT22;39181;53.440;5.644;2023-03-23T15:46:48;12.60;99.90
53294;DHT22;39181;53.440;5.644;2023-03-23T15:49:15;12.60;99.90
53294;DHT22;39181;53.440;5.644;2023-03-23T15:51:41;12.50;99.90
53294;DHT22;39181;53.440;5.644;2023-03-23T15:54:15;12.40;99.90
53294;DHT22;39181;53.440;5.644;2023-03-23T15:56:42;12.40;99.90
53294;DHT22;39181;53.440;5.644;2023-03-23T15:59:09;12.30;99.90
53294;DHT22;39181;53.440;5.644;2023-03-23T16:01:38;12.30;99.90
53294;DHT22;39181;53.440;5.644;2023-03-23T16:04:10;12.30;99.90
53294;DHT22;39181;53.440;5.644;2023-03-23T16:06:37;12.30;99.90
53294;DHT22;39181;53.440;5.644;2023-03-23T16:09:04;12.40;99.90
53294;DHT22;39181;53.440;5.644;2023-03-23T16:11:31;12.30;99.90
53294;DHT22;39181;53.440;5.644;2023-03-23T16:13:57;12.40;99.90
53294;DHT22;39181;53.440;5.644;2023-03-23T16:16:24;12.40;99.90
53294;DHT22;39181;53.440;5.644;2023-03-23T16:18:51;12.40;99.90
53294;DHT22;39181;53.440;5.644;2023-03-23T16:21:17;12.40;99.90
53294;DHT22;39181;53.440;5.644;2023-03-23T16:23:42;12.30;99.90
53294;DHT22;39181;53.440;5.644;2023-03-23T16:26:11;12.20;99.90
53294;DHT22;39181;53.440;5.644;2023-03-23T16:28:36;12.20;99.90
53294;DHT22;39181;53.440;5.644;2023-03-23T16:31:02;12.20;99.90
53294;DHT22;39181;53.440;5.644;2023-03-23T16:33:27;12.10;99.90
53294;DHT22;39181;53.440;5.644;2023-03-23T16:35:53;12.10;99.90
53294;DHT22;39181;53.440;5.644;2023-03-23T16:38:18;12.10;99.90
53294;DHT22;39181;53.440;5.644;2023-03-23T16:40:45;12.00;99.90
53294;DHT22;39181;53.440;5.644;2023-03-23T16:43:12;12.00;99.90
53294;DHT22;39181;53.440;5.644;2023-03-23T16:45:39;12.00;99.90
53294;DHT22;39181;53.440;5.644;2023-03-23T16:48:06;11.90;99.90
53294;DHT22;39181;53.440;5.644;2023-03-23T16:50:33;11.90;99.90
53294;DHT22;39181;53.440;5.644;2023-03-23T16:52:59;11.90;99.90
53294;DHT22;39181;53.440;5.644;2023-03-23T16:55:25;11.90;99.90
53294;DHT22;39181;53.440;5.644;2023-03-23T16:57:52;11.90;99.90
53294;DHT22;39181;53.440;5.644;2023-03-23T17:00:18;11.80;99.90
53294;DHT22;39181;53.440;5.644;2023-03-23T17:02:45;11.80;99.90
53294;DHT22;39181;53.440;5.644;2023-03-23T17:05:12;11.80;99.90
53294;DHT22;39181;53.440;5.644;2023-03-23T17:07:38;11.70;99.90
53294;DHT22;39181;53.440;5.644;2023-03-23T17:10:06;11.80;99.90
53294;DHT22;39181;53.440;5.644;2023-03-23T17:12:32;11.70;99.90
53294;DHT22;39181;53.440;5.644;2023-03-23T17:14:58;11.70;99.90
53294;DHT22;39181;53.440;5.644;2023-03-23T17:17:24;11.60;99.90
53294;DHT22;39181;53.440;5.644;2023-03-23T17:19:49;11.60;99.90
53294;DHT22;39181;53.440;5.644;2023-03-23T17:22:15;11.50;99.90
53294;DHT22;39181;53.440;5.644;2023-03-23T17:24:40;11.50;99.90